This is the latest recevied weather packets stored in our database for station/object HP3ICC-22. If no packets are shown the sender has not sent any weather packets the latest 10 day(s).
| Time | Temp. | Humidity | Pressure | Rain* | Wind** | Luminosity | Snow |
|---|---|---|---|---|---|---|---|
| 1777287456 | 7.78° C | 81% | 1015 hPa | 0 mm | - | - | - |
| 1777286315 | 7.78° C | 76% | 1014 hPa | 0 mm | - | - | - |
| 1777286255 | 7.78° C | 76% | 1014 hPa | 0 mm | - | - | - |
| 1777285115 | 8.89° C | 74% | 1013 hPa | 0 mm | - | - | - |
| 1777285055 | 8.89° C | 74% | 1013 hPa | 0 mm | - | - | - |
| 1777283915 | 7.78° C | 84% | 1014 hPa | 0 mm | - | - | - |
| 1777283854 | 7.78° C | 84% | 1014 hPa | 0 mm | - | - | - |
| 1777282714 | 8.33° C | 84% | 1014 hPa | 0 mm | - | - | - |
| 1777282654 | 8.33° C | 84% | 1014 hPa | 0 mm | - | - | - |
| 1777281513 | 8.89° C | 74% | 1012 hPa | 0 mm | - | - | - |
| 1777281453 | 8.89° C | 74% | 1012 hPa | 0 mm | - | - | - |
| 1777280313 | 8.33° C | 86% | 1013 hPa | 0 mm | - | - | - |
| 1777280253 | 8.33° C | 86% | 1013 hPa | 0 mm | - | - | - |
| 1777279112 | 8.89° C | 74% | 1013 hPa | 0 mm | - | - | - |
| 1777279052 | 8.89° C | 74% | 1013 hPa | 0 mm | - | - | - |
| 1777277912 | 8.33° C | 83% | 1012 hPa | 0 mm | - | - | - |
| 1777277852 | 8.33° C | 83% | 1012 hPa | 0 mm | - | - | - |
| 1777276712 | 8.33° C | 77% | 1013 hPa | 0 mm | - | - | - |
| 1777276651 | 8.33° C | 77% | 1013 hPa | 0 mm | - | - | - |
| 1777275511 | 9.44° C | 74% | 1013 hPa | 0 mm | - | - | - |
| 1777275450 | 9.44° C | 74% | 1013 hPa | 0 mm | - | - | - |
| 1777274310 | 8.89° C | 88% | 1013 hPa | 0 mm | - | - | - |
| 1777274250 | 8.89° C | 88% | 1013 hPa | 0 mm | - | - | - |
| 1777273109 | 9.44° C | 74% | 1014 hPa | 0 mm | - | - | - |
| 1777273049 | 9.44° C | 74% | 1014 hPa | 0 mm | - | - | - |
* Rain latest hour (hover to see other rain measurements)
** Current wind speed in m/s (hover to see current wind gust speed)